createdAt,value
2023-01-29T00:01:35.188Z,21.58
2023-01-29T00:04:03.107Z,18.45
2023-01-29T00:06:30.939Z,19.20
2023-01-29T00:09:00.130Z,21.42
2023-01-29T00:11:28.099Z,23.90
2023-01-29T00:13:56.002Z,17.50
2023-01-29T00:16:23.972Z,19.17
2023-01-29T00:18:51.828Z,19.48
2023-01-29T00:21:21.989Z,19.55
2023-01-29T00:23:50.411Z,18.05
2023-01-29T00:26:19.567Z,20.80
2023-01-29T00:28:47.444Z,18.88
2023-01-29T00:31:17.094Z,20.73
2023-01-29T00:33:45.280Z,17.83
2023-01-29T00:36:15.593Z,18.42
2023-01-29T00:38:43.815Z,15.93
2023-01-29T00:41:36.391Z,19.38
2023-01-29T00:44:24.864Z,17.95
2023-01-29T00:46:52.865Z,20.15
2023-01-29T00:49:20.777Z,19.38
2023-01-29T00:52:09.479Z,22.15
2023-01-29T00:54:37.648Z,20.17
2023-01-29T00:57:05.607Z,18.35
2023-01-29T00:59:34.792Z,18.20
2023-01-29T01:02:20.170Z,21.42
2023-01-29T01:04:48.057Z,20.92
2023-01-29T01:07:15.942Z,19.75
2023-01-29T01:10:01.354Z,22.73
2023-01-29T01:12:30.106Z,18.65
2023-01-29T01:14:59.587Z,18.08
2023-01-29T01:17:27.512Z,19.35
2023-01-29T01:19:55.337Z,19.13
2023-01-29T01:22:23.142Z,18.10
2023-01-29T01:24:51.288Z,16.95
2023-01-29T01:27:19.576Z,16.77
2023-01-29T01:29:47.583Z,16.92
2023-01-29T01:32:16.836Z,19.70
2023-01-29T01:34:45.800Z,17.65
2023-01-29T01:37:13.712Z,18.70
2023-01-29T01:39:41.601Z,15.07
2023-01-29T01:42:14.196Z,15.38
2023-01-29T01:44:57.066Z,17.48
2023-01-29T01:47:31.765Z,18.00
2023-01-29T01:50:04.108Z,15.88
2023-01-29T01:52:33.251Z,16.40
2023-01-29T01:55:01.867Z,15.27
2023-01-29T01:57:31.818Z,17.10
2023-01-29T02:00:10.053Z,15.32
2023-01-29T02:02:57.968Z,17.60
2023-01-29T02:05:44.548Z,16.77
2023-01-29T02:08:30.709Z,17.90
2023-01-29T02:10:59.406Z,16.80
2023-01-29T02:13:28.053Z,17.20
2023-01-29T02:15:55.872Z,17.13
2023-01-29T02:18:25.125Z,15.38
2023-01-29T02:21:15.957Z,18.00
2023-01-29T02:24:16.186Z,15.25
2023-01-29T02:26:59.694Z,14.02
2023-01-29T02:29:36.317Z,16.45
2023-01-29T02:32:17.158Z,18.80
2023-01-29T02:35:12.376Z,13.43
2023-01-29T02:37:46.479Z,13.40
2023-01-29T02:40:25.579Z,14.23
2023-01-29T02:43:02.932Z,16.40
2023-01-29T02:45:36.300Z,15.52
2023-01-29T02:48:04.519Z,18.02
2023-01-29T02:50:38.277Z,14.40
2023-01-29T02:53:11.246Z,13.27
2023-01-29T02:55:43.611Z,14.40
2023-01-29T02:58:16.189Z,13.43
2023-01-29T03:00:47.868Z,14.80
2023-01-29T03:03:19.279Z,14.00
2023-01-29T03:05:56.982Z,14.40
2023-01-29T03:08:37.266Z,13.23
2023-01-29T03:11:08.213Z,13.52
2023-01-29T03:13:40.942Z,12.15
2023-01-29T03:16:16.083Z,11.75
2023-01-29T03:18:50.744Z,13.05
2023-01-29T03:21:49.515Z,13.38
2023-01-29T03:24:37.880Z,11.45
2023-01-29T03:27:27.830Z,14.82
2023-01-29T03:30:16.070Z,14.73
2023-01-29T03:32:47.578Z,11.65
2023-01-29T03:35:20.857Z,12.05
2023-01-29T03:37:49.820Z,12.73
2023-01-29T03:40:18.267Z,11.68
2023-01-29T03:42:57.146Z,15.88
2023-01-29T03:45:34.039Z,12.90
2023-01-29T03:48:10.383Z,13.73
2023-01-29T03:50:48.836Z,17.25
2023-01-29T03:53:24.980Z,13.35
2023-01-29T03:56:01.168Z,20.13
2023-01-29T03:58:38.032Z,15.13
2023-01-29T04:01:11.968Z,14.20
2023-01-29T04:03:44.384Z,12.85
2023-01-29T04:06:17.944Z,12.38
2023-01-29T04:08:50.277Z,12.68
2023-01-29T04:11:21.978Z,13.13
2023-01-29T04:13:50.907Z,13.50
2023-01-29T04:16:24.915Z,12.45
2023-01-29T04:18:54.890Z,12.75
2023-01-29T04:21:23.225Z,13.40
2023-01-29T04:23:51.049Z,14.38
2023-01-29T04:26:43.459Z,15.95
2023-01-29T04:29:30.255Z,11.50
2023-01-29T04:32:08.650Z,16.95
2023-01-29T04:34:51.430Z,13.27
2023-01-29T04:37:30.450Z,14.43
2023-01-29T04:40:05.186Z,14.63
2023-01-29T04:42:40.971Z,15.18
2023-01-29T04:45:17.219Z,17.65
2023-01-29T04:47:51.809Z,14.65
2023-01-29T04:50:27.818Z,17.95
2023-01-29T04:53:01.379Z,13.05
2023-01-29T04:55:36.679Z,15.07
2023-01-29T04:58:10.201Z,13.98
2023-01-29T05:00:41.877Z,17.38
2023-01-29T05:03:11.843Z,15.85
2023-01-29T05:05:43.659Z,13.48
2023-01-29T05:08:14.856Z,16.55
2023-01-29T05:10:43.478Z,13.63
2023-01-29T05:13:14.445Z,23.58
2023-01-29T05:15:47.467Z,15.18
2023-01-29T05:18:15.465Z,16.35
2023-01-29T05:20:45.441Z,14.07
2023-01-29T05:23:17.727Z,21.20
2023-01-29T05:25:46.747Z,15.57
2023-01-29T05:28:17.194Z,17.80
2023-01-29T05:30:46.713Z,16.92
2023-01-29T05:33:17.172Z,15.60
2023-01-29T05:35:46.606Z,15.48
2023-01-29T05:38:14.925Z,15.23
2023-01-29T05:40:43.198Z,15.57
2023-01-29T05:43:16.878Z,13.85
2023-01-29T05:45:44.986Z,16.70
2023-01-29T05:48:12.828Z,16.30
2023-01-29T05:50:40.623Z,14.27
2023-01-29T05:53:10.344Z,17.65
2023-01-29T05:55:38.198Z,19.73
2023-01-29T05:58:06.180Z,16.90
2023-01-29T06:00:34.065Z,18.30
2023-01-29T06:03:01.918Z,12.95
2023-01-29T06:05:29.870Z,14.18
2023-01-29T06:07:57.735Z,12.00
2023-01-29T06:10:26.898Z,13.50
2023-01-29T06:12:54.716Z,15.38
2023-01-29T06:15:22.556Z,14.02
2023-01-29T06:17:50.359Z,13.05
2023-01-29T06:20:18.885Z,12.38
2023-01-29T06:22:47.205Z,12.55
2023-01-29T06:25:15.189Z,12.73
2023-01-29T06:27:44.339Z,13.63
2023-01-29T06:30:13.300Z,14.43
2023-01-29T06:32:41.183Z,15.63
2023-01-29T06:35:10.763Z,20.95
2023-01-29T06:37:38.652Z,11.80
2023-01-29T06:40:07.653Z,13.65
2023-01-29T06:42:36.408Z,12.68
2023-01-29T06:45:06.494Z,14.27
2023-01-29T06:47:34.343Z,12.55
2023-01-29T06:50:02.236Z,14.23
2023-01-29T06:52:30.071Z,13.60
2023-01-29T06:54:57.945Z,17.67
2023-01-29T06:57:25.790Z,15.20
2023-01-29T06:59:53.614Z,14.60
2023-01-29T07:02:22.821Z,13.45
2023-01-29T07:04:50.816Z,16.65
2023-01-29T07:07:18.664Z,15.07
2023-01-29T07:09:46.551Z,15.52
2023-01-29T07:12:14.361Z,16.15
2023-01-29T07:14:42.203Z,16.30
2023-01-29T07:17:10.095Z,12.82
2023-01-29T07:19:39.376Z,17.80
2023-01-29T07:22:07.210Z,14.93
2023-01-29T07:24:35.082Z,14.05
2023-01-29T07:27:02.926Z,14.38
2023-01-29T07:29:30.774Z,12.98
2023-01-29T07:31:58.674Z,16.85
2023-01-29T07:34:26.699Z,17.95
2023-01-29T07:36:56.796Z,12.52
2023-01-29T07:39:24.760Z,16.42
2023-01-29T07:41:52.611Z,12.30
2023-01-29T07:44:20.552Z,13.90
2023-01-29T07:46:48.379Z,13.75
2023-01-29T07:49:16.272Z,15.55
2023-01-29T07:51:44.252Z,13.50
2023-01-29T07:54:13.428Z,17.55
2023-01-29T07:56:41.265Z,13.00
2023-01-29T07:59:09.101Z,13.40
2023-01-29T08:01:36.965Z,13.30
2023-01-29T08:04:04.918Z,16.30
2023-01-29T08:06:36.440Z,11.80
2023-01-29T08:09:04.324Z,14.82
2023-01-29T08:11:33.470Z,15.95
2023-01-29T08:14:01.407Z,13.75
2023-01-29T08:16:29.376Z,14.80
2023-01-29T08:18:57.203Z,15.77
2023-01-29T08:21:25.053Z,13.82
2023-01-29T08:23:52.882Z,14.07
2023-01-29T08:26:20.710Z,14.65
2023-01-29T08:28:49.896Z,15.15
2023-01-29T08:31:20.431Z,14.18
2023-01-29T08:33:48.335Z,14.85
2023-01-29T08:36:16.526Z,13.38
2023-01-29T08:38:44.380Z,11.95
2023-01-29T08:41:12.191Z,13.00
2023-01-29T08:43:40.594Z,17.13
2023-01-29T08:46:10.009Z,12.65
2023-01-29T08:48:37.893Z,11.63
2023-01-29T08:51:05.942Z,14.18
2023-01-29T08:53:34.076Z,13.18
2023-01-29T08:56:01.951Z,14.23
2023-01-29T08:58:29.817Z,15.73
2023-01-29T09:00:57.930Z,18.17
2023-01-29T09:03:27.115Z,13.75
2023-01-29T09:05:54.983Z,16.50
2023-01-29T09:08:22.873Z,17.52
2023-01-29T09:10:50.692Z,15.63
2023-01-29T09:13:18.548Z,13.50
2023-01-29T09:15:46.521Z,16.48
2023-01-29T09:18:14.384Z,12.60
2023-01-29T09:20:43.609Z,13.75
2023-01-29T09:23:12.789Z,13.25
2023-01-29T09:25:40.623Z,15.70
2023-01-29T09:28:08.484Z,16.02
2023-01-29T09:30:38.250Z,18.73
2023-01-29T09:33:06.544Z,16.00
2023-01-29T09:35:35.394Z,15.93
2023-01-29T09:38:04.699Z,14.70
2023-01-29T09:40:38.803Z,15.90
2023-01-29T09:43:12.345Z,18.55
2023-01-29T09:45:45.680Z,15.07
2023-01-29T09:48:14.350Z,15.40
2023-01-29T09:50:45.501Z,15.98
2023-01-29T09:53:20.990Z,14.07
2023-01-29T09:55:53.822Z,13.70
2023-01-29T09:58:26.227Z,15.43
2023-01-29T10:01:03.934Z,16.15
2023-01-29T10:03:53.353Z,16.27
2023-01-29T10:06:29.724Z,17.30
2023-01-29T10:09:30.526Z,14.60
2023-01-29T10:12:12.334Z,12.80
2023-01-29T10:14:47.883Z,13.05
2023-01-29T10:17:34.046Z,12.88
2023-01-29T10:20:24.153Z,14.07
2023-01-29T10:23:03.232Z,14.10
2023-01-29T10:25:37.672Z,13.43
2023-01-29T10:28:17.421Z,13.23
2023-01-29T10:30:50.040Z,16.60
2023-01-29T10:33:25.977Z,14.25
2023-01-29T10:35:57.852Z,18.27
2023-01-29T10:38:45.291Z,17.88
2023-01-29T10:41:28.104Z,14.80
2023-01-29T10:44:07.888Z,12.45
2023-01-29T10:46:54.518Z,12.07
2023-01-29T10:49:36.765Z,16.58
2023-01-29T10:52:18.234Z,12.32
2023-01-29T10:55:00.199Z,14.88
2023-01-29T10:57:53.423Z,10.77
2023-01-29T11:00:24.761Z,13.32
2023-01-29T11:02:53.875Z,14.30
2023-01-29T11:05:27.068Z,16.30
2023-01-29T11:08:04.056Z,13.88
2023-01-29T11:10:37.592Z,13.95
2023-01-29T11:13:07.140Z,12.75
2023-01-29T11:15:35.624Z,13.02
2023-01-29T11:18:10.616Z,12.30
2023-01-29T11:20:38.527Z,13.55
2023-01-29T11:23:07.651Z,13.18
2023-01-29T11:25:35.835Z,16.25
2023-01-29T11:28:05.310Z,14.07
2023-01-29T11:30:37.077Z,16.98
2023-01-29T11:33:11.035Z,17.98
2023-01-29T11:35:39.053Z,16.80
2023-01-29T11:38:19.989Z,16.40
2023-01-29T11:40:48.177Z,16.13
2023-01-29T11:43:31.522Z,16.30
2023-01-29T11:46:03.541Z,14.75
2023-01-29T11:48:40.645Z,17.58
2023-01-29T11:51:11.259Z,16.05
2023-01-29T11:53:41.951Z,20.58
2023-01-29T11:56:23.718Z,16.73
2023-01-29T11:58:55.344Z,14.75
2023-01-29T12:01:33.515Z,41.30
2023-01-29T12:04:02.056Z,16.30
2023-01-29T12:06:36.213Z,17.00
2023-01-29T12:09:10.674Z,17.83
2023-01-29T12:11:38.512Z,16.75
2023-01-29T12:14:22.911Z,18.65
2023-01-29T12:16:57.681Z,17.33
2023-01-29T12:19:32.207Z,16.63
2023-01-29T12:22:05.728Z,15.45
2023-01-29T12:24:39.476Z,14.00
2023-01-29T12:27:13.933Z,16.77
2023-01-29T12:29:47.638Z,11.63
2023-01-29T12:32:28.903Z,17.83
2023-01-29T12:35:02.484Z,13.15
2023-01-29T12:37:39.827Z,15.20
2023-01-29T12:40:13.779Z,13.73
2023-01-29T12:42:45.440Z,15.35
2023-01-29T12:45:19.180Z,14.60
2023-01-29T12:47:51.130Z,12.35
2023-01-29T12:50:22.974Z,11.85
2023-01-29T12:52:55.524Z,15.25
2023-01-29T12:55:27.109Z,13.45
2023-01-29T12:57:58.944Z,13.32
2023-01-29T13:00:30.200Z,11.20
2023-01-29T13:03:05.155Z,12.38
2023-01-29T13:05:39.572Z,13.60
2023-01-29T13:08:10.863Z,13.20
2023-01-29T13:10:44.012Z,11.23
2023-01-29T13:13:17.882Z,11.45
2023-01-29T13:15:46.148Z,11.43
2023-01-29T13:18:33.032Z,11.45
2023-01-29T13:21:01.956Z,9.98
2023-01-29T13:23:34.860Z,9.93
2023-01-29T13:26:03.655Z,10.68
2023-01-29T13:28:32.121Z,11.65
2023-01-29T13:31:24.153Z,11.18
2023-01-29T13:34:00.983Z,17.70
2023-01-29T13:36:31.303Z,11.30
2023-01-29T13:39:05.093Z,13.35
2023-01-29T13:41:35.584Z,13.18
2023-01-29T13:44:05.729Z,14.18
2023-01-29T13:46:33.952Z,13.23
2023-01-29T13:49:04.967Z,13.15
2023-01-29T13:51:37.419Z,12.48
2023-01-29T13:54:09.794Z,13.93
2023-01-29T13:56:48.932Z,16.45
2023-01-29T13:59:24.849Z,14.73
2023-01-29T14:02:20.092Z,13.68
2023-01-29T14:04:49.326Z,16.70
2023-01-29T14:07:51.302Z,14.60
2023-01-29T14:10:21.848Z,15.25
2023-01-29T14:12:52.499Z,14.38
2023-01-29T14:15:32.524Z,16.17
2023-01-29T14:18:14.726Z,14.27
2023-01-29T14:21:03.463Z,15.65
2023-01-29T14:26:06.643Z,19.77
2023-01-29T14:28:36.038Z,17.02
2023-01-29T14:31:04.870Z,24.33
2023-01-29T14:33:37.666Z,14.68
2023-01-29T14:36:11.802Z,15.32
2023-01-29T14:38:41.086Z,18.70
2023-01-29T14:41:17.290Z,17.92
2023-01-29T14:43:45.212Z,16.40
2023-01-29T14:46:44.238Z,18.27
2023-01-29T14:49:12.300Z,17.98
2023-01-29T14:51:45.416Z,17.95
2023-01-29T14:54:24.061Z,19.50
2023-01-29T14:56:59.367Z,19.00
2023-01-29T14:59:33.765Z,15.38
2023-01-29T15:02:06.252Z,21.77
2023-01-29T15:04:40.202Z,18.45
2023-01-29T15:07:26.396Z,20.45
2023-01-29T15:10:13.488Z,27.25
2023-01-29T15:12:50.176Z,19.27
2023-01-29T15:15:22.505Z,19.25
2023-01-29T15:17:56.763Z,18.52
2023-01-29T15:20:30.704Z,22.33
2023-01-29T15:23:00.042Z,18.75
2023-01-29T15:25:33.748Z,16.98
2023-01-29T15:28:02.164Z,19.60
2023-01-29T15:30:34.839Z,17.63
2023-01-29T15:33:03.999Z,16.73
2023-01-29T15:35:36.043Z,18.45
2023-01-29T15:38:07.150Z,19.45
2023-01-29T15:40:35.894Z,18.45
2023-01-29T15:43:03.768Z,18.10
2023-01-29T15:45:33.489Z,17.63
2023-01-29T15:48:06.881Z,18.80
2023-01-29T15:50:40.497Z,22.85
2023-01-29T15:53:14.749Z,21.45
2023-01-29T15:55:43.483Z,21.23
2023-01-29T15:58:16.558Z,19.88
2023-01-29T16:00:50.999Z,21.65
2023-01-29T16:03:24.082Z,20.17
2023-01-29T16:05:53.538Z,19.52
2023-01-29T16:08:24.707Z,20.27
2023-01-29T16:10:56.332Z,18.50
2023-01-29T16:13:28.615Z,27.45
2023-01-29T16:15:59.075Z,20.10
2023-01-29T16:18:30.926Z,24.08
2023-01-29T16:21:01.714Z,21.38
2023-01-29T16:23:34.841Z,24.45
2023-01-29T16:26:06.202Z,23.10
2023-01-29T16:28:34.303Z,21.45
2023-01-29T16:31:04.319Z,18.60
2023-01-29T16:33:36.517Z,26.90
2023-01-29T16:36:06.430Z,29.17
2023-01-29T16:38:36.723Z,29.20
2023-01-29T16:44:03.268Z,26.23
2023-01-29T16:49:46.758Z,23.88
2023-01-29T16:52:20.795Z,25.25
2023-01-29T16:54:50.128Z,25.40
2023-01-29T16:57:22.529Z,23.50
2023-01-29T16:59:54.050Z,23.63
2023-01-29T17:02:26.658Z,27.88
2023-01-29T17:04:58.687Z,23.30
2023-01-29T17:07:27.308Z,32.60
2023-01-29T17:10:00.494Z,27.75
2023-01-29T17:12:30.263Z,26.33
2023-01-29T17:14:59.987Z,25.90
2023-01-29T17:17:32.619Z,30.02
2023-01-29T17:20:13.907Z,32.10
2023-01-29T17:22:41.819Z,28.60
2023-01-29T17:25:15.305Z,31.83
2023-01-29T17:27:45.295Z,31.25
2023-01-29T17:30:15.618Z,31.15
2023-01-29T17:32:45.193Z,29.65
2023-01-29T17:35:16.558Z,29.02
2023-01-29T17:37:45.256Z,35.30
2023-01-29T17:40:29.481Z,30.70
2023-01-29T17:42:57.283Z,41.63
2023-01-29T17:45:25.239Z,37.88
2023-01-29T17:47:53.158Z,31.70
2023-01-29T17:50:24.840Z,33.63
2023-01-29T17:52:53.691Z,34.58
2023-01-29T17:55:23.173Z,36.03
2023-01-29T17:57:50.981Z,30.25
2023-01-29T18:00:21.439Z,30.45
2023-01-29T18:02:49.563Z,34.13
2023-01-29T18:05:18.922Z,38.88
2023-01-29T18:07:47.976Z,35.30
2023-01-29T18:10:19.526Z,32.17
2023-01-29T18:12:48.949Z,34.30
2023-01-29T18:15:17.195Z,33.30
2023-01-29T18:17:45.471Z,37.88
2023-01-29T18:20:25.638Z,35.83
2023-01-29T18:22:53.698Z,27.52
2023-01-29T18:25:23.090Z,30.58
2023-01-29T18:27:53.882Z,27.50
2023-01-29T18:30:21.818Z,22.13
2023-01-29T18:32:50.224Z,27.63
2023-01-29T18:35:18.573Z,26.67
2023-01-29T18:37:47.490Z,36.97
2023-01-29T18:40:17.195Z,21.08
2023-01-29T18:42:45.733Z,24.52
2023-01-29T18:45:16.769Z,24.38
2023-01-29T18:47:45.909Z,21.70
2023-01-29T18:50:13.828Z,22.40
2023-01-29T18:52:41.773Z,23.15
2023-01-29T18:55:10.656Z,20.90
2023-01-29T18:58:28.141Z,21.25
2023-01-29T19:00:28.576Z,22.88
2023-01-29T19:02:56.426Z,21.00
2023-01-29T19:05:25.649Z,21.58
2023-01-29T19:07:53.526Z,20.60
2023-01-29T19:10:21.383Z,19.98
2023-01-29T19:12:49.229Z,20.02
2023-01-29T19:15:20.520Z,21.55
2023-01-29T19:17:49.718Z,18.38
2023-01-29T19:20:17.859Z,17.80
2023-01-29T19:22:45.735Z,18.48
2023-01-29T19:25:13.719Z,27.52
2023-01-29T19:27:41.649Z,30.75
2023-01-29T19:30:12.729Z,33.92
2023-01-29T19:32:40.876Z,43.03
2023-01-29T19:35:10.140Z,34.72
2023-01-29T19:37:37.979Z,30.23
2023-01-29T19:40:08.101Z,27.27
2023-01-29T19:42:37.326Z,25.65
2023-01-29T19:45:05.739Z,24.95
2023-01-29T19:47:33.740Z,30.00
2023-01-29T19:50:01.585Z,28.45
2023-01-29T19:52:50.388Z,26.85
2023-01-29T19:55:20.417Z,32.30
2023-01-29T19:57:49.054Z,29.33
2023-01-29T20:00:18.328Z,33.58
2023-01-29T20:02:46.342Z,23.52
2023-01-29T20:05:17.127Z,24.30
2023-01-29T20:07:46.641Z,23.73
2023-01-29T20:10:17.399Z,23.60
2023-01-29T20:12:46.007Z,23.42
2023-01-29T20:15:14.447Z,23.98
2023-01-29T20:17:43.568Z,21.67
2023-01-29T20:20:12.239Z,25.38
2023-01-29T20:22:40.072Z,25.83
2023-01-29T20:25:13.417Z,27.38
2023-01-29T20:27:41.474Z,24.33
2023-01-29T20:30:10.699Z,24.25
2023-01-29T20:32:38.552Z,24.48
2023-01-29T20:35:07.343Z,22.45
2023-01-29T20:37:35.136Z,26.58
2023-01-29T20:40:02.986Z,26.08
2023-01-29T20:42:32.150Z,24.92
2023-01-29T20:44:59.988Z,26.95
2023-01-29T20:47:27.982Z,27.88
2023-01-29T20:49:55.791Z,34.50
2023-01-29T20:52:23.709Z,29.08
2023-01-29T20:54:51.583Z,28.38
2023-01-29T20:57:19.427Z,30.30
2023-01-29T20:59:48.618Z,33.70
2023-01-29T21:02:17.051Z,34.22
2023-01-29T21:04:44.964Z,29.60
2023-01-29T21:07:12.862Z,28.65
2023-01-29T21:09:40.811Z,31.65
2023-01-29T21:12:08.767Z,31.15
2023-01-29T21:14:36.656Z,36.63
2023-01-29T21:17:06.021Z,30.58
2023-01-29T21:19:33.949Z,28.27
2023-01-29T21:22:01.756Z,30.40
2023-01-29T21:24:29.646Z,33.08
2023-01-29T21:26:57.485Z,32.40
2023-01-29T21:29:25.477Z,30.80
2023-01-29T21:31:53.369Z,30.77
2023-01-29T21:34:22.582Z,32.42
2023-01-29T21:36:50.406Z,32.92
2023-01-29T21:39:20.497Z,31.40
2023-01-29T21:42:07.841Z,32.67
2023-01-29T21:44:36.301Z,28.23
2023-01-29T21:47:12.145Z,29.92
2023-01-29T21:49:42.722Z,28.60
2023-01-29T21:52:12.544Z,27.27
2023-01-29T21:54:40.868Z,26.67
2023-01-29T21:57:14.831Z,30.23
2023-01-29T21:59:43.039Z,30.60
2023-01-29T22:02:15.004Z,32.08
2023-01-29T22:04:44.322Z,31.02
2023-01-29T22:07:13.226Z,26.25
2023-01-29T22:09:41.561Z,29.13
2023-01-29T22:12:10.035Z,27.75
2023-01-29T22:14:37.909Z,28.42
2023-01-29T22:17:06.298Z,27.42
2023-01-29T22:19:34.199Z,24.10
2023-01-29T22:22:03.365Z,28.27
2023-01-29T22:24:31.423Z,32.97
2023-01-29T22:26:59.232Z,30.88
2023-01-29T22:29:27.128Z,28.05
2023-01-29T22:31:56.447Z,28.52
2023-01-29T22:34:24.377Z,27.67
2023-01-29T22:36:52.666Z,29.65
2023-01-29T22:39:21.912Z,30.58
2023-01-29T22:41:49.766Z,32.10
2023-01-29T22:44:17.651Z,30.40
2023-01-29T22:46:45.889Z,30.80
2023-01-29T22:49:13.858Z,31.75
2023-01-29T22:51:41.678Z,33.38
2023-01-29T22:54:09.553Z,36.42
2023-01-29T22:56:38.715Z,34.88
2023-01-29T22:59:06.578Z,26.67
2023-01-29T23:01:34.618Z,30.27
2023-01-29T23:04:02.626Z,33.33
2023-01-29T23:06:30.470Z,35.10
2023-01-29T23:08:58.319Z,30.02
2023-01-29T23:11:26.147Z,30.88
2023-01-29T23:13:56.346Z,32.25
2023-01-29T23:16:27.973Z,27.83
2023-01-29T23:18:56.818Z,29.63
2023-01-29T23:21:25.887Z,33.78
2023-01-29T23:23:55.296Z,31.40
2023-01-29T23:26:41.082Z,29.25
2023-01-29T23:29:10.585Z,35.10
2023-01-29T23:31:38.575Z,32.83
2023-01-29T23:34:06.489Z,33.85
2023-01-29T23:36:34.306Z,34.03
2023-01-29T23:39:02.152Z,30.08
2023-01-29T23:41:30.009Z,30.15
2023-01-29T23:43:57.851Z,33.78
2023-01-29T23:46:27.436Z,29.77
2023-01-29T23:48:55.380Z,30.50
2023-01-29T23:51:23.324Z,31.02
2023-01-29T23:53:51.167Z,34.92
2023-01-29T23:56:19.123Z,28.88
2023-01-29T23:58:46.973Z,31.15
